sensor_id;sensor_type;location;lat;lon;timestamp;pressure;altitude;pressure_sealevel;temperature;humidity
66381;BME280;53177;52.648;1.214;2022-09-23T00:00:42;101001.75;;;14.19;97.77
66381;BME280;53177;52.648;1.214;2022-09-23T00:03:09;100990.63;;;14.05;98.61
66381;BME280;53177;52.648;1.214;2022-09-23T00:05:35;100992.00;;;14.03;99.42
66381;BME280;53177;52.648;1.214;2022-09-23T00:08:03;100999.81;;;14.04;99.51
66381;BME280;53177;52.648;1.214;2022-09-23T00:10:29;100996.34;;;14.09;98.79
66381;BME280;53177;52.648;1.214;2022-09-23T00:12:57;100984.94;;;14.02;99.55
66381;BME280;53177;52.648;1.214;2022-09-23T00:15:24;100990.41;;;14.12;98.91
66381;BME280;53177;52.648;1.214;2022-09-23T00:17:52;100982.81;;;14.09;99.31
66381;BME280;53177;52.648;1.214;2022-09-23T00:20:19;100982.28;;;14.07;99.74
66381;BME280;53177;52.648;1.214;2022-09-23T00:22:44;100982.28;;;14.07;99.17
66381;BME280;53177;52.648;1.214;2022-09-23T00:25:10;100983.34;;;14.06;99.19
66381;BME280;53177;52.648;1.214;2022-09-23T00:27:37;100983.66;;;14.20;98.36
66381;BME280;53177;52.648;1.214;2022-09-23T00:30:05;100989.34;;;14.18;97.83
66381;BME280;53177;52.648;1.214;2022-09-23T00:32:31;100988.28;;;14.24;97.91
66381;BME280;53177;52.648;1.214;2022-09-23T00:34:57;100984.81;;;14.29;97.33
66381;BME280;53177;52.648;1.214;2022-09-23T00:37:22;100980.44;;;14.23;98.05
66381;BME280;53177;52.648;1.214;2022-09-23T00:39:48;100984.50;;;14.25;98.14
66381;BME280;53177;52.648;1.214;2022-09-23T00:42:15;100983.41;;;14.16;98.89
66381;BME280;53177;52.648;1.214;2022-09-23T00:44:43;100986.66;;;14.23;97.92
66381;BME280;53177;52.648;1.214;2022-09-23T00:47:29;100980.09;;;13.99;100.00
66381;BME280;53177;52.648;1.214;2022-09-23T00:52:29;100982.91;;;14.24;98.21
66381;BME280;53177;52.648;1.214;2022-09-23T00:54:57;100976.94;;;14.22;98.26
66381;BME280;53177;52.648;1.214;2022-09-23T00:57:25;100975.53;;;14.14;99.18
66381;BME280;53177;52.648;1.214;2022-09-23T00:59:51;100980.66;;;14.06;100.00
66381;BME280;53177;52.648;1.214;2022-09-23T01:02:18;100979.03;;;14.10;100.00
66381;BME280;53177;52.648;1.214;2022-09-23T01:04:46;100978.50;;;14.08;99.85
66381;BME280;53177;52.648;1.214;2022-09-23T01:07:12;100975.50;;;14.04;100.00
66381;BME280;53177;52.648;1.214;2022-09-23T01:09:38;100970.31;;;13.93;100.00
66381;BME280;53177;52.648;1.214;2022-09-23T01:17:43;100964.69;;;13.99;100.00
66381;BME280;53177;52.648;1.214;2022-09-23T01:20:39;100950.41;;;14.04;100.00
66381;BME280;53177;52.648;1.214;2022-09-23T01:34:34;100943.09;;;14.09;100.00
66381;BME280;53177;52.648;1.214;2022-09-23T01:40:04;100943.41;;;14.23;100.00
66381;BME280;53177;52.648;1.214;2022-09-23T01:42:49;100938.56;;;14.20;100.00
66381;BME280;53177;52.648;1.214;2022-09-23T01:45:29;100935.31;;;14.23;100.00
66381;BME280;53177;52.648;1.214;2022-09-23T01:48:01;100935.25;;;13.98;100.00
66381;BME280;53177;52.648;1.214;2022-09-23T01:50:35;100934.16;;;13.99;100.00
66381;BME280;53177;52.648;1.214;2022-09-23T01:53:28;100934.97;;;13.94;100.00
66381;BME280;53177;52.648;1.214;2022-09-23T01:56:01;100934.16;;;13.88;100.00
66381;BME280;53177;52.648;1.214;2022-09-23T02:01:06;100923.34;;;13.94;100.00
66381;BME280;53177;52.648;1.214;2022-09-23T02:08:36;100926.78;;;13.79;100.00
66381;BME280;53177;52.648;1.214;2022-09-23T02:11:07;100924.66;;;13.81;100.00
66381;BME280;53177;52.648;1.214;2022-09-23T02:16:08;100919.28;;;13.96;100.00
66381;BME280;53177;52.648;1.214;2022-09-23T02:18:45;100909.75;;;13.73;100.00
66381;BME280;53177;52.648;1.214;2022-09-23T02:21:13;100909.72;;;13.58;100.00
66381;BME280;53177;52.648;1.214;2022-09-23T02:23:50;100911.06;;;13.60;100.00
66381;BME280;53177;52.648;1.214;2022-09-23T02:34:50;100906.25;;;13.68;100.00
66381;BME280;53177;52.648;1.214;2022-09-23T02:40:11;100898.66;;;13.64;100.00
66381;BME280;53177;52.648;1.214;2022-09-23T02:45:11;100898.47;;;13.81;100.00
66381;BME280;53177;52.648;1.214;2022-09-23T02:47:38;100902.19;;;13.70;100.00
66381;BME280;53177;52.648;1.214;2022-09-23T02:50:06;100896.22;;;13.63;100.00
66381;BME280;53177;52.648;1.214;2022-09-23T02:52:33;100888.59;;;13.45;100.00
66381;BME280;53177;52.648;1.214;2022-09-23T02:55:02;100891.56;;;13.48;100.00
66381;BME280;53177;52.648;1.214;2022-09-23T02:57:28;100888.34;;;13.51;100.00
66381;BME280;53177;52.648;1.214;2022-09-23T02:59:53;100885.91;;;13.50;100.00
66381;BME280;53177;52.648;1.214;2022-09-23T03:03:11;100886.22;;;13.53;100.00
66381;BME280;53177;52.648;1.214;2022-09-23T03:05:24;100891.34;;;13.60;100.00
66381;BME280;53177;52.648;1.214;2022-09-23T03:13:31;100893.06;;;13.81;100.00
66381;BME280;53177;52.648;1.214;2022-09-23T03:18:57;100891.69;;;13.74;100.00
66381;BME280;53177;52.648;1.214;2022-09-23T03:21:40;100890.50;;;13.49;100.00
66381;BME280;53177;52.648;1.214;2022-09-23T03:24:08;100885.09;;;13.49;100.00
66381;BME280;53177;52.648;1.214;2022-09-23T03:26:36;100887.72;;;13.39;100.00
66381;BME280;53177;52.648;1.214;2022-09-23T03:29:06;100887.25;;;13.47;100.00
66381;BME280;53177;52.648;1.214;2022-09-23T03:31:36;100888.03;;;13.43;100.00
66381;BME280;53177;52.648;1.214;2022-09-23T03:34:08;100888.06;;;13.48;100.00
66381;BME280;53177;52.648;1.214;2022-09-23T03:36:51;100885.63;;;13.46;100.00
66381;BME280;53177;52.648;1.214;2022-09-23T03:39:39;100885.41;;;13.58;100.00
66381;BME280;53177;52.648;1.214;2022-09-23T03:42:10;100887.00;;;13.49;100.00
66381;BME280;53177;52.648;1.214;2022-09-23T03:44:42;100881.81;;;13.42;100.00
66381;BME280;53177;52.648;1.214;2022-09-23T03:47:10;100879.31;;;13.30;100.00
66381;BME280;53177;52.648;1.214;2022-09-23T03:49:37;100878.78;;;13.28;100.00
66381;BME280;53177;52.648;1.214;2022-09-23T03:52:04;100873.41;;;13.33;100.00
66381;BME280;53177;52.648;1.214;2022-09-23T03:54:30;100873.41;;;13.33;100.00
66381;BME280;53177;52.648;1.214;2022-09-23T03:56:56;100871.00;;;13.37;100.00
66381;BME280;53177;52.648;1.214;2022-09-23T03:59:22;100875.03;;;13.34;100.00
66381;BME280;53177;52.648;1.214;2022-09-23T04:01:48;100871.78;;;13.27;100.00
66381;BME280;53177;52.648;1.214;2022-09-23T04:04:14;100866.38;;;13.27;100.00
66381;BME280;53177;52.648;1.214;2022-09-23T04:06:39;100872.91;;;13.36;100.00
66381;BME280;53177;52.648;1.214;2022-09-23T04:09:05;100875.00;;;13.29;100.00
66381;BME280;53177;52.648;1.214;2022-09-23T04:11:30;100865.91;;;13.40;100.00
66381;BME280;53177;52.648;1.214;2022-09-23T04:13:55;100873.41;;;13.33;100.00
66381;BME280;53177;52.648;1.214;2022-09-23T04:16:21;100867.19;;;13.28;100.00
66381;BME280;53177;52.648;1.214;2022-09-23T04:18:47;100874.22;;;13.34;100.00
66381;BME280;53177;52.648;1.214;2022-09-23T04:21:14;100864.22;;;13.29;100.00
66381;BME280;53177;52.648;1.214;2022-09-23T04:23:39;100860.72;;;13.34;100.00
66381;BME280;53177;52.648;1.214;2022-09-23T04:26:05;100864.69;;;13.21;100.00
66381;BME280;53177;52.648;1.214;2022-09-23T04:28:31;100868.00;;;13.28;100.00
66381;BME280;53177;52.648;1.214;2022-09-23T04:30:57;100861.53;;;13.34;100.00
66381;BME280;53177;52.648;1.214;2022-09-23T04:33:23;100863.72;;;13.37;100.00
66381;BME280;53177;52.648;1.214;2022-09-23T04:35:51;100868.31;;;13.42;100.00
66381;BME280;53177;52.648;1.214;2022-09-23T04:38:17;100862.41;;;13.45;100.00
66381;BME280;53177;52.648;1.214;2022-09-23T04:40:43;100865.31;;;13.33;100.00
66381;BME280;53177;52.648;1.214;2022-09-23T04:43:09;100861.03;;;13.37;100.00
66381;BME280;53177;52.648;1.214;2022-09-23T04:45:35;100859.38;;;13.26;100.00
66381;BME280;53177;52.648;1.214;2022-09-23T04:48:00;100858.22;;;13.17;100.00
66381;BME280;53177;52.648;1.214;2022-09-23T04:50:27;100863.81;;;13.10;100.00
66381;BME280;53177;52.648;1.214;2022-09-23T04:52:53;100861.91;;;13.06;100.00
66381;BME280;53177;52.648;1.214;2022-09-23T04:55:20;100855.19;;;13.08;100.00
66381;BME280;53177;52.648;1.214;2022-09-23T04:57:45;100857.28;;;13.01;100.00
66381;BME280;53177;52.648;1.214;2022-09-23T05:00:11;100859.81;;;13.13;100.00
66381;BME280;53177;52.648;1.214;2022-09-23T05:02:44;100853.06;;;13.15;100.00
66381;BME280;53177;52.648;1.214;2022-09-23T05:05:10;100855.22;;;13.13;100.00
66381;BME280;53177;52.648;1.214;2022-09-23T05:07:36;100850.63;;;13.14;100.00
66381;BME280;53177;52.648;1.214;2022-09-23T05:10:01;100851.16;;;13.16;100.00
66381;BME280;53177;52.648;1.214;2022-09-23T05:12:27;100849.03;;;13.18;100.00
66381;BME280;53177;52.648;1.214;2022-09-23T05:14:52;100854.22;;;13.25;100.00
66381;BME280;53177;52.648;1.214;2022-09-23T05:17:19;100855.91;;;13.36;100.00
66381;BME280;53177;52.648;1.214;2022-09-23T05:19:45;100852.91;;;13.32;100.00
66381;BME280;53177;52.648;1.214;2022-09-23T05:22:10;100850.22;;;13.37;100.00
66381;BME280;53177;52.648;1.214;2022-09-23T05:24:35;100844.84;;;13.43;100.00
66381;BME280;53177;52.648;1.214;2022-09-23T05:27:01;100849.84;;;13.19;100.00
66381;BME280;53177;52.648;1.214;2022-09-23T05:29:27;100857.63;;;13.15;100.00
66381;BME280;53177;52.648;1.214;2022-09-23T05:31:53;100852.75;;;13.12;100.00
66381;BME280;53177;52.648;1.214;2022-09-23T05:34:23;100852.22;;;13.10;100.00
66381;BME280;53177;52.648;1.214;2022-09-23T05:36:49;100858.41;;;13.05;100.00
66381;BME280;53177;52.648;1.214;2022-09-23T05:39:15;100857.81;;;12.98;100.00
66381;BME280;53177;52.648;1.214;2022-09-23T05:41:40;100857.59;;;13.05;100.00
66381;BME280;53177;52.648;1.214;2022-09-23T05:44:07;100854.09;;;13.09;100.00
66381;BME280;53177;52.648;1.214;2022-09-23T05:46:32;100865.19;;;13.13;100.00
66381;BME280;53177;52.648;1.214;2022-09-23T05:48:59;100857.88;;;13.08;100.00
66381;BME280;53177;52.648;1.214;2022-09-23T05:51:26;100844.94;;;13.10;100.00
66381;BME280;53177;52.648;1.214;2022-09-23T05:53:53;100862.19;;;13.04;100.00
66381;BME280;53177;52.648;1.214;2022-09-23T05:56:21;100869.47;;;13.09;100.00
66381;BME280;53177;52.648;1.214;2022-09-23T05:58:48;100869.72;;;13.07;100.00
66381;BME280;53177;52.648;1.214;2022-09-23T06:01:19;100880.19;;;12.99;100.00
66381;BME280;53177;52.648;1.214;2022-09-23T06:03:54;100875.09;;;13.02;100.00
66381;BME280;53177;52.648;1.214;2022-09-23T06:06:27;100876.19;;;13.06;100.00
66381;BME280;53177;52.648;1.214;2022-09-23T06:08:53;100871.63;;;13.12;100.00
66381;BME280;53177;52.648;1.214;2022-09-23T06:11:19;100869.81;;;13.18;100.00
66381;BME280;53177;52.648;1.214;2022-09-23T06:13:45;100874.44;;;13.22;100.00
66381;BME280;53177;52.648;1.214;2022-09-23T06:16:13;100879.59;;;13.29;100.00
66381;BME280;53177;52.648;1.214;2022-09-23T06:18:40;100881.78;;;13.32;100.00
66381;BME280;53177;52.648;1.214;2022-09-23T06:21:07;100873.91;;;13.25;100.00
66381;BME280;53177;52.648;1.214;2022-09-23T06:23:33;100874.72;;;13.26;100.00
66381;BME280;53177;52.648;1.214;2022-09-23T06:26:03;100881.13;;;13.20;100.00
66381;BME280;53177;52.648;1.214;2022-09-23T06:28:34;100882.22;;;13.19;100.00
66381;BME280;53177;52.648;1.214;2022-09-23T06:31:01;100876.06;;;13.23;100.00
66381;BME280;53177;52.648;1.214;2022-09-23T06:33:30;100883.66;;;13.31;100.00
66381;BME280;53177;52.648;1.214;2022-09-23T06:35:56;100876.38;;;13.27;100.00
66381;BME280;53177;52.648;1.214;2022-09-23T06:38:23;100885.00;;;13.34;100.00
66381;BME280;53177;52.648;1.214;2022-09-23T06:40:50;100888.00;;;13.37;100.00
66381;BME280;53177;52.648;1.214;2022-09-23T06:43:15;100889.63;;;13.38;100.00
66381;BME280;53177;52.648;1.214;2022-09-23T06:45:41;100891.31;;;13.50;100.00
66381;BME280;53177;52.648;1.214;2022-09-23T06:48:06;100891.31;;;13.50;100.00
66381;BME280;53177;52.648;1.214;2022-09-23T06:50:32;100892.97;;;13.66;100.00
66381;BME280;53177;52.648;1.214;2022-09-23T06:52:57;100897.84;;;13.64;100.00
66381;BME280;53177;52.648;1.214;2022-09-23T06:55:24;100892.97;;;13.61;100.00
66381;BME280;53177;52.648;1.214;2022-09-23T06:57:52;100890.25;;;13.56;100.00
66381;BME280;53177;52.648;1.214;2022-09-23T07:00:18;100899.16;;;13.56;100.00
66381;BME280;53177;52.648;1.214;2022-09-23T07:02:45;100895.16;;;13.64;100.00
66381;BME280;53177;52.648;1.214;2022-09-23T07:05:11;100894.56;;;13.57;100.00
66381;BME280;53177;52.648;1.214;2022-09-23T07:07:37;100888.13;;;13.58;100.00
66381;BME280;53177;52.648;1.214;2022-09-23T07:10:04;100894.06;;;13.60;100.00
66381;BME280;53177;52.648;1.214;2022-09-23T07:12:30;100893.81;;;13.67;100.00
66381;BME280;53177;52.648;1.214;2022-09-23T07:14:56;100894.06;;;13.65;100.00
66381;BME280;53177;52.648;1.214;2022-09-23T07:17:21;100897.06;;;13.74;100.00
66381;BME280;53177;52.648;1.214;2022-09-23T07:19:48;100901.16;;;13.76;100.00
66381;BME280;53177;52.648;1.214;2022-09-23T07:22:14;100899.28;;;13.92;100.00
66381;BME280;53177;52.648;1.214;2022-09-23T07:24:39;100901.69;;;13.83;100.00
66381;BME280;53177;52.648;1.214;2022-09-23T07:27:05;100908.16;;;13.72;100.00
66381;BME280;53177;52.648;1.214;2022-09-23T07:29:30;100905.44;;;13.67;100.00
66381;BME280;53177;52.648;1.214;2022-09-23T07:31:55;100905.44;;;13.67;100.00
66381;BME280;53177;52.648;1.214;2022-09-23T07:34:21;100907.06;;;13.73;100.00
66381;BME280;53177;52.648;1.214;2022-09-23T07:36:46;100906.53;;;13.76;100.00
66381;BME280;53177;52.648;1.214;2022-09-23T07:39:12;100915.75;;;13.85;100.00
66381;BME280;53177;52.648;1.214;2022-09-23T07:41:37;100917.38;;;13.86;100.00
66381;BME280;53177;52.648;1.214;2022-09-23T07:44:03;100910.88;;;13.82;100.00
66381;BME280;53177;52.648;1.214;2022-09-23T07:46:32;100919.25;;;13.81;100.00
66381;BME280;53177;52.648;1.214;2022-09-23T07:48:58;100921.13;;;13.75;100.00
66381;BME280;53177;52.648;1.214;2022-09-23T07:51:27;100920.06;;;13.81;100.00
66381;BME280;53177;52.648;1.214;2022-09-23T07:53:54;100914.66;;;13.81;100.00
66381;BME280;53177;52.648;1.214;2022-09-23T07:56:20;100924.94;;;13.84;100.00
66381;BME280;53177;52.648;1.214;2022-09-23T07:58:48;100915.50;;;13.92;100.00
66381;BME280;53177;52.648;1.214;2022-09-23T08:01:24;100916.84;;;13.89;100.00
66381;BME280;53177;52.648;1.214;2022-09-23T08:03:50;100911.47;;;13.89;100.00
66381;BME280;53177;52.648;1.214;2022-09-23T08:06:15;100911.47;;;13.95;100.00
66381;BME280;53177;52.648;1.214;2022-09-23T08:08:40;100912.06;;;14.07;100.00
66381;BME280;53177;52.648;1.214;2022-09-23T08:11:09;100901.78;;;14.09;100.00
66381;BME280;53177;52.648;1.214;2022-09-23T08:13:35;100908.00;;;14.14;100.00
66381;BME280;53177;52.648;1.214;2022-09-23T08:16:01;100909.38;;;14.17;100.00
66381;BME280;53177;52.648;1.214;2022-09-23T08:18:26;100909.91;;;14.19;100.00
66381;BME280;53177;52.648;1.214;2022-09-23T08:20:52;100903.97;;;14.22;100.00
66381;BME280;53177;52.648;1.214;2022-09-23T08:23:17;100909.94;;;14.39;100.00
66381;BME280;53177;52.648;1.214;2022-09-23T08:25:45;100917.56;;;14.73;100.00
66381;BME280;53177;52.648;1.214;2022-09-23T08:28:15;100909.72;;;14.97;100.00
66381;BME280;53177;52.648;1.214;2022-09-23T08:30:44;100918.38;;;14.84;100.00
66381;BME280;53177;52.648;1.214;2022-09-23T08:33:11;100928.41;;;14.78;100.00
66381;BME280;53177;52.648;1.214;2022-09-23T08:35:37;100917.31;;;14.75;100.00
66381;BME280;53177;52.648;1.214;2022-09-23T08:38:03;100916.75;;;14.68;100.00
66381;BME280;53177;52.648;1.214;2022-09-23T08:40:35;100929.19;;;14.63;100.00
66381;BME280;53177;52.648;1.214;2022-09-23T08:43:07;100921.88;;;14.54;100.00
66381;BME280;53177;52.648;1.214;2022-09-23T08:45:40;100930.47;;;14.46;100.00
66381;BME280;53177;52.648;1.214;2022-09-23T08:48:16;100942.97;;;14.57;100.00
66381;BME280;53177;52.648;1.214;2022-09-23T08:50:53;100930.03;;;14.69;100.00
66381;BME280;53177;52.648;1.214;2022-09-23T08:53:25;100938.13;;;14.69;100.00
66381;BME280;53177;52.648;1.214;2022-09-23T08:55:54;100946.25;;;14.69;100.00
66381;BME280;53177;52.648;1.214;2022-09-23T09:04:01;100940.28;;;14.62;100.00
66381;BME280;53177;52.648;1.214;2022-09-23T09:06:33;100939.19;;;14.63;100.00
66381;BME280;53177;52.648;1.214;2022-09-23T09:09:03;100944.06;;;14.61;100.00
66381;BME280;53177;52.648;1.214;2022-09-23T09:11:35;100948.38;;;14.57;100.00
66381;BME280;53177;52.648;1.214;2022-09-23T09:14:14;100943.53;;;14.74;100.00
66381;BME280;53177;52.648;1.214;2022-09-23T09:17:02;100946.50;;;14.73;100.00
66381;BME280;53177;52.648;1.214;2022-09-23T09:19:56;100948.66;;;14.60;100.00
66381;BME280;53177;52.648;1.214;2022-09-23T09:22:31;100946.50;;;14.57;100.00
66381;BME280;53177;52.648;1.214;2022-09-23T09:25:08;100955.41;;;14.58;100.00
66381;BME280;53177;52.648;1.214;2022-09-23T09:27:40;100944.03;;;14.51;100.00
66381;BME280;53177;52.648;1.214;2022-09-23T09:30:11;100950.22;;;14.41;100.00
66381;BME280;53177;52.648;1.214;2022-09-23T09:32:53;100947.25;;;14.43;100.00
66381;BME280;53177;52.648;1.214;2022-09-23T09:37:50;100944.28;;;14.34;100.00
66381;BME280;53177;52.648;1.214;2022-09-23T09:40:16;100945.59;;;14.36;100.00
66381;BME280;53177;52.648;1.214;2022-09-23T09:42:46;100943.97;;;14.30;100.00
66381;BME280;53177;52.648;1.214;2022-09-23T09:47:47;100943.19;;;14.30;100.00
66381;BME280;53177;52.648;1.214;2022-09-23T09:50:49;100938.88;;;14.34;100.00
66381;BME280;53177;52.648;1.214;2022-09-23T09:58:22;100943.97;;;14.30;100.00
66381;BME280;53177;52.648;1.214;2022-09-23T10:00:49;100947.78;;;14.29;100.00
66381;BME280;53177;52.648;1.214;2022-09-23T10:08:34;100940.28;;;14.52;100.00
66381;BME280;53177;52.648;1.214;2022-09-23T10:13:32;100939.19;;;14.58;100.00
66381;BME280;53177;52.648;1.214;2022-09-23T10:16:01;100945.09;;;14.45;100.00
66381;BME280;53177;52.648;1.214;2022-09-23T10:21:16;100945.09;;;14.45;100.00
66381;BME280;53177;52.648;1.214;2022-09-23T10:23:47;100936.19;;;14.49;100.00
66381;BME280;53177;52.648;1.214;2022-09-23T10:26:16;100936.41;;;14.37;100.00
66381;BME280;53177;52.648;1.214;2022-09-23T10:28:53;100944.81;;;14.41;100.00
66381;BME280;53177;52.648;1.214;2022-09-23T10:31:26;100936.44;;;14.48;100.00
66381;BME280;53177;52.648;1.214;2022-09-23T10:34:03;100939.72;;;14.55;100.00
66381;BME280;53177;52.648;1.214;2022-09-23T10:36:53;100939.75;;;14.65;100.00
66381;BME280;53177;52.648;1.214;2022-09-23T10:39:19;100942.69;;;14.63;100.00
66381;BME280;53177;52.648;1.214;2022-09-23T10:45:26;100946.78;;;14.71;100.00
66381;BME280;53177;52.648;1.214;2022-09-23T10:50:55;100940.84;;;14.74;100.00
66381;BME280;53177;52.648;1.214;2022-09-23T10:53:57;100940.28;;;14.82;100.00
66381;BME280;53177;52.648;1.214;2022-09-23T11:01:50;100935.16;;;14.96;100.00
66381;BME280;53177;52.648;1.214;2022-09-23T11:07:39;100935.94;;;14.76;100.00
66381;BME280;53177;52.648;1.214;2022-09-23T11:18:29;100943.47;;;14.44;100.00
66381;BME280;53177;52.648;1.214;2022-09-23T11:24:36;100935.13;;;14.55;100.00
66381;BME280;53177;52.648;1.214;2022-09-23T11:35:47;100937.03;;;15.11;100.00
66381;BME280;53177;52.648;1.214;2022-09-23T11:38:18;100930.41;;;15.58;100.00
66381;BME280;53177;52.648;1.214;2022-09-23T11:40:51;100930.81;;;16.01;100.00
66381;BME280;53177;52.648;1.214;2022-09-23T11:43:22;100928.44;;;15.84;100.00
66381;BME280;53177;52.648;1.214;2022-09-23T11:46:05;100926.41;;;15.45;100.00
66381;BME280;53177;52.648;1.214;2022-09-23T11:48:48;100929.09;;;15.50;100.00
66381;BME280;53177;52.648;1.214;2022-09-23T11:51:21;100930.97;;;15.55;100.00
66381;BME280;53177;52.648;1.214;2022-09-23T11:53:54;100928.56;;;15.43;100.00
66381;BME280;53177;52.648;1.214;2022-09-23T11:56:27;100929.09;;;15.40;100.00
66381;BME280;53177;52.648;1.214;2022-09-23T12:01:34;100930.25;;;15.13;100.00
66381;BME280;53177;52.648;1.214;2022-09-23T12:06:59;100924.03;;;14.98;100.00
66381;BME280;53177;52.648;1.214;2022-09-23T12:09:33;100926.75;;;14.98;100.00
66381;BME280;53177;52.648;1.214;2022-09-23T12:12:28;100920.75;;;15.26;100.00
66381;BME280;53177;52.648;1.214;2022-09-23T12:15:16;100920.75;;;15.26;100.00
66381;BME280;53177;52.648;1.214;2022-09-23T12:17:52;100918.81;;;15.42;100.00
66381;BME280;53177;52.648;1.214;2022-09-23T12:20:41;100924.25;;;15.27;100.00
66381;BME280;53177;52.648;1.214;2022-09-23T12:23:56;100915.34;;;15.26;100.00
66381;BME280;53177;52.648;1.214;2022-09-23T12:26:04;100931.59;;;15.11;100.00
66381;BME280;53177;52.648;1.214;2022-09-23T12:28:33;100927.53;;;15.19;100.00
66381;BME280;53177;52.648;1.214;2022-09-23T12:31:01;100920.56;;;14.87;100.00
66381;BME280;53177;52.648;1.214;2022-09-23T12:33:29;100921.63;;;14.81;100.00
66381;BME280;53177;52.648;1.214;2022-09-23T12:36:08;100925.16;;;14.91;100.00
66381;BME280;53177;52.648;1.214;2022-09-23T12:38:45;100931.63;;;15.06;100.00
66381;BME280;53177;52.648;1.214;2022-09-23T12:46:43;100916.94;;;15.42;100.00
66381;BME280;53177;52.648;1.214;2022-09-23T12:52:24;100912.97;;;15.95;100.00
66381;BME280;53177;52.648;1.214;2022-09-23T12:54:54;100910.97;;;16.10;100.00
66381;BME280;53177;52.648;1.214;2022-09-23T12:59:53;100912.34;;;16.03;100.00
66381;BME280;53177;52.648;1.214;2022-09-23T13:05:47;100911.38;;;15.83;100.00
66381;BME280;53177;52.648;1.214;2022-09-23T13:08:36;100910.88;;;15.76;100.00
66381;BME280;53177;52.648;1.214;2022-09-23T13:11:05;100911.19;;;15.70;100.00
66381;BME280;53177;52.648;1.214;2022-09-23T13:13:42;100908.19;;;15.61;100.00
66381;BME280;53177;52.648;1.214;2022-09-23T13:16:12;100910.09;;;15.65;100.00
66381;BME280;53177;52.648;1.214;2022-09-23T13:18:52;100902.53;;;15.68;100.00
66381;BME280;53177;52.648;1.214;2022-09-23T13:24:17;100907.13;;;15.67;100.00
66381;BME280;53177;52.648;1.214;2022-09-23T13:26:49;100896.28;;;15.62;100.00
66381;BME280;53177;52.648;1.214;2022-09-23T13:29:36;100901.91;;;15.86;100.00
66381;BME280;53177;52.648;1.214;2022-09-23T13:32:03;100898.63;;;15.94;100.00
66381;BME280;53177;52.648;1.214;2022-09-23T13:34:32;100907.28;;;15.91;100.00
66381;BME280;53177;52.648;1.214;2022-09-23T13:37:16;100898.94;;;15.82;100.00
66381;BME280;53177;52.648;1.214;2022-09-23T13:39:43;100909.22;;;15.85;97.39
66381;BME280;53177;52.648;1.214;2022-09-23T13:42:15;100904.22;;;16.03;99.29
66381;BME280;53177;52.648;1.214;2022-09-23T13:44:44;100912.38;;;15.98;94.82
66381;BME280;53177;52.648;1.214;2022-09-23T13:47:10;100903.41;;;16.02;96.11
66381;BME280;53177;52.648;1.214;2022-09-23T13:49:38;100910.19;;;16.05;97.81
66381;BME280;53177;52.648;1.214;2022-09-23T13:52:04;100905.31;;;16.02;97.04
66381;BME280;53177;52.648;1.214;2022-09-23T13:54:44;100911.91;;;15.90;96.65
66381;BME280;53177;52.648;1.214;2022-09-23T13:57:31;100910.59;;;15.78;93.93
66381;BME280;53177;52.648;1.214;2022-09-23T14:02:27;100905.19;;;15.62;96.42
66381;BME280;53177;52.648;1.214;2022-09-23T14:04:56;100903.28;;;15.78;93.69
66381;BME280;53177;52.648;1.214;2022-09-23T14:07:25;100910.84;;;15.86;92.80
66381;BME280;53177;52.648;1.214;2022-09-23T14:09:53;100904.84;;;15.95;91.67
66381;BME280;53177;52.648;1.214;2022-09-23T14:12:20;100906.22;;;15.87;93.58
66381;BME280;53177;52.648;1.214;2022-09-23T14:14:49;100906.34;;;16.11;90.62
66381;BME280;53177;52.648;1.214;2022-09-23T14:17:17;100907.13;;;16.22;90.57
66381;BME280;53177;52.648;1.214;2022-09-23T14:19:44;100903.06;;;16.19;89.70
66381;BME280;53177;52.648;1.214;2022-09-23T14:22:39;100907.56;;;15.84;90.30
66381;BME280;53177;52.648;1.214;2022-09-23T14:25:12;100911.31;;;15.93;92.47
66381;BME280;53177;52.648;1.214;2022-09-23T14:27:39;100903.28;;;15.78;92.09
66381;BME280;53177;52.648;1.214;2022-09-23T14:30:09;100909.22;;;15.80;91.16
66381;BME280;53177;52.648;1.214;2022-09-23T14:32:38;100903.59;;;15.72;91.73
66381;BME280;53177;52.648;1.214;2022-09-23T14:35:19;100897.56;;;15.85;95.07
66381;BME280;53177;52.648;1.214;2022-09-23T14:37:48;100900.59;;;15.73;93.14
66381;BME280;53177;52.648;1.214;2022-09-23T14:40:34;100900.34;;;15.70;93.37
66381;BME280;53177;52.648;1.214;2022-09-23T14:43:26;100909.25;;;15.75;87.55
66381;BME280;53177;52.648;1.214;2022-09-23T14:45:54;100893.53;;;15.77;86.68
66381;BME280;53177;52.648;1.214;2022-09-23T14:48:39;100894.03;;;15.84;85.61
66381;BME280;53177;52.648;1.214;2022-09-23T14:51:06;100901.00;;;16.01;87.08
66381;BME280;53177;52.648;1.214;2022-09-23T14:53:41;100891.16;;;16.15;88.91
66381;BME280;53177;52.648;1.214;2022-09-23T15:01:31;100895.22;;;15.68;89.34
66381;BME280;53177;52.648;1.214;2022-09-23T15:03:59;100891.97;;;15.56;85.83
66381;BME280;53177;52.648;1.214;2022-09-23T15:06:25;100891.44;;;15.54;88.16
66381;BME280;53177;52.648;1.214;2022-09-23T15:08:53;100895.22;;;15.53;89.79
66381;BME280;53177;52.648;1.214;2022-09-23T15:11:22;100896.34;;;15.47;88.42
66381;BME280;53177;52.648;1.214;2022-09-23T15:13:51;100895.69;;;15.80;89.70
66381;BME280;53177;52.648;1.214;2022-09-23T15:16:24;100893.44;;;15.92;87.15
66381;BME280;53177;52.648;1.214;2022-09-23T15:18:55;100889.88;;;16.07;86.80
66381;BME280;53177;52.648;1.214;2022-09-23T15:21:22;100890.16;;;16.01;86.04
66381;BME280;53177;52.648;1.214;2022-09-23T15:23:52;100894.56;;;15.91;86.20
66381;BME280;53177;52.648;1.214;2022-09-23T15:26:35;100894.78;;;16.00;86.79